Elizabeth River — VRBJ5 — position and weather

sailwx.info

Track history (hours):
 
Tides and Currents Weather Stations Pressure Air Temp Water Temp Dewpoint Dewpoint Depression Visibility Wind Speed Wind Dir Waves Ship Positions

Elizabeth River

Last reported at 2018-May-22 10:00 UTC. Time now 2018-May-22 10:16 UTC.
Position N 47°36' W 122°22'.

Length 190 m; draft 11.2 m.

Type: Cargo ship. MMSI: 477070400.

Date/timePositionNaut miles runAvg speedWind from/ knotsBaromVisibWave heightAir tempDewpointWater temp
2018-May-22 10:00N 47°36' W 122°22'0 0.1
2018-May-22 09:30N 47°36' W 122°22'0 0.1
2018-May-22 09:00N 47°36' W 122°22'0 0.0
2018-May-22 08:30N 47°36' W 122°22'0 0.0
2018-May-22 08:00N 47°36' W 122°22'0 0.0
2018-May-22 07:30N 47°36' W 122°22'0 0.1
2018-May-22 07:00N 47°36' W 122°22'0 0.0
2018-May-22 06:30N 47°36' W 122°22'0 0.0
2018-May-22 06:00N 47°36' W 122°22'0 0.0
2018-May-22 05:30N 47°36' W 122°22'0 0.0
2018-May-22 04:59N 47°36' W 122°22'0 0.1
2018-May-22 04:29N 47°36' W 122°22'0 0.0
2018-May-22 03:59N 47°36' W 122°22'0 0.1
2018-May-22 03:29N 47°36' W 122°22'0 0.1
2018-May-22 02:59N 47°36' W 122°22'0 0.0
2018-May-22 02:29N 47°36' W 122°22'0 0.0
2018-May-22 01:59N 47°36' W 122°22'0 0.0
2018-May-22 01:29N 47°36' W 122°22'0 0.1
2018-May-22 00:59N 47°36' W 122°22'0 0.1
2018-May-22 00:29N 47°36' W 122°22'0 0.0
2018-May-21 23:59N 47°36' W 122°22'0 0.0
2018-May-21 23:29N 47°36' W 122°22'0 0.1
2018-May-21 22:59N 47°36' W 122°22'0 0.1
2018-May-21 22:29N 47°36' W 122°22'0 0.0
2018-May-21 21:59N 47°36' W 122°22'0 0.0
2018-May-21 21:29N 47°36' W 122°22'0 0.0
2018-May-21 20:59N 47°36' W 122°22'0 0.1
2018-May-21 20:29N 47°36' W 122°22'0 0.0
2018-May-21 19:59N 47°36' W 122°22'0 0.1
2018-May-21 19:29N 47°36' W 122°22'0 0.1
2018-May-21 18:59N 47°36' W 122°22'0 0.1
2018-May-21 18:29N 47°36' W 122°22'0 0.2
2018-May-21 17:59N 47°36' W 122°22'0 0.0
2018-May-21 17:29N 47°36' W 122°22'0 0.0
2018-May-21 16:59N 47°36' W 122°22'0 0.1
2018-May-21 16:29N 47°36' W 122°22'0 0.1
2018-May-21 15:59N 47°36' W 122°22'0 0.1
2018-May-21 15:29N 47°36' W 122°22'0 0.1
2018-May-21 14:59N 47°36' W 122°22'0 0.1
2018-May-21 14:29N 47°36' W 122°22'0 0.0
2018-May-21 13:59N 47°36' W 122°22'0 0.0
2018-May-21 13:29N 47°36' W 122°22'0 0.1
2018-May-21 12:59N 47°36' W 122°22'0 0.1
2018-May-21 12:29N 47°36' W 122°22'0 0.1
2018-May-21 11:59N 47°36' W 122°22'0 0.1
2018-May-21 11:29N 47°36' W 122°22'0 0.2
2018-May-21 10:59N 47°36' W 122°22'0 0.2
2018-May-21 10:29N 47°36' W 122°22'0 0.1
2018-May-21 09:59N 47°36' W 122°22'0 0.0
2018-May-21 09:29N 47°36' W 122°22'0 0.0
2018-May-21 08:59N 47°36' W 122°22'0 0.0
2018-May-21 08:29N 47°36' W 122°22'0 0.0
2018-May-21 07:59N 47°36' W 122°22'0 0.1
2018-May-21 07:29N 47°36' W 122°22'0 0.1
2018-May-21 06:59N 47°36' W 122°22'0 0.0
2018-May-21 06:29N 47°36' W 122°22'0 0.1
2018-May-21 05:59N 47°36' W 122°22'0 0.0
2018-May-21 05:29N 47°36' W 122°22'0 0.1
2018-May-21 04:59N 47°36' W 122°22'0 0.1
2018-May-21 04:29N 47°36' W 122°22'0 0.0
2018-May-21 03:59N 47°36' W 122°22'0 0.0
2018-May-21 03:29N 47°36' W 122°22'0 0.2
2018-May-21 02:59N 47°36' W 122°22'0 0.0
2018-May-21 02:29N 47°36' W 122°22'0 0.2
2018-May-21 01:53N 47°36' W 122°22'0 0.2
2018-May-21 01:29N 47°36' W 122°22'0 0.2
2018-May-21 01:00N 47°36' W 122°22'0 0.6
2018-May-21 00:30N 47°36' W 122°23'1 2.7
2018-May-21 00:00N 47°37' W 122°24'3 6.7
2018-May-20 23:30N 47°39' W 122°28'510.8
2018-May-20 23:00N 47°44' W 122°27'510.8
2018-May-20 22:30N 47°50' W 122°28'510.9
2018-May-20 22:00N 47°55' W 122°30'5 9.6
2018-May-20 21:30N 47°58' W 122°36'5 8.8
2018-May-20 20:57N 48°03' W 122°39'6 7.3
2018-May-20 20:10N 48°08' W 122°42'1 7.3
2018-May-20 19:58N 48°09' W 122°44'4 7.7
2018-May-20 19:30N 48°11' W 122°49'5 9.1
2018-May-20 18:55N 48°11' W 122°57'5 9.7
2018-May-20 18:24N 48°12' W 123°04'4 9.6
2018-May-20 17:58N 48°11' W 123°10'510.0
2018-May-20 17:30N 48°10' W 123°17'4 8.5
2018-May-20 16:59N 48°10' W 123°24'4 8.4
2018-May-20 16:28N 48°12' W 123°29'3 5.6
2018-May-20 16:00N 48°13' W 123°33'5 9.2
2018-May-20 15:29N 48°13' W 123°40'511.6
2018-May-20 15:00N 48°13' W 123°48'612.0
2018-May-20 14:30N 48°14' W 123°57'712.1
2018-May-20 13:57N 48°17' W 124°06'511.7
2018-May-20 13:30N 48°19' W 124°13'611.6
2018-May-20 13:00N 48°22' W 124°21'611.6
2018-May-20 12:30N 48°24' W 124°29'611.1
2018-May-20 12:00N 48°26' W 124°37'510.7
2018-May-20 11:30N 48°28' W 124°44'611.7
2018-May-20 11:00N 48°28' W 124°53'610.3
2018-May-20 10:26N 48°27' W 125°01'511.2
2018-May-20 10:00N 48°22' W 125°05'510.1
2018-May-20 09:29N 48°18' W 125°08'3 6.4
2018-May-20 09:00N 48°16' W 125°11'0 0.9
2018-May-20 08:26N 48°15' W 125°12'1 1.4
2018-May-20 07:57N 48°15' W 125°12'1 1.9
2018-May-20 07:30N 48°14' W 125°13'1 1.5
2018-May-20 06:55N 48°14' W 125°15'3 6.0
2018-May-20 06:25N 48°12' W 125°17'12410.9
2018-May-19 19:00N 47°00' W 127°48'113 9.9 280 / 121023.0 11.0 6.813.0
2018-May-19 07:32N 45°25' W 129°17'011.1
2018-May-19 07:30N 45°25' W 129°17'611.2
2018-May-19 07:00N 45°19' W 129°17'15112.6
2018-May-18 19:00N 42°48' W 129°24'29312.2 350 / 151025.0 14.0 8.011.0
2018-May-17 19:00N 38°00' W 128°12'57812.0 330 / 151026.0 16.012.413.0
2018-May-15 19:00N 29°54' W 121°54'28611.9 320 / 121024.0 20.010.919.0
2018-May-14 19:00N 26°42' W 117°54'53110.8 330 / 121021.0 21.014.220.0
2018-May-12 18:00N 22°54' W 109°06'   240 / 221018.0 27.022.626.0
Track history (hours):
 
Tides and Currents Weather Stations Pressure Air Temp Water Temp Dewpoint Dewpoint Depression Visibility Wind Speed Wind Dir Waves Ship Positions

Elizabeth River

Last reported at 2018-May-22 10:00 UTC. Time now 2018-May-22 10:16 UTC.
Position N 47°36' W 122°22'.

Length 190 m; draft 11.2 m.

Type: Cargo ship. MMSI: 477070400.

Date/timePositionNaut miles runAvg speedWind from/ knotsBaromVisibWave heightAir tempDewpointWater temp
2018-May-22 10:00N 47°36' W 122°22'0 0.1
2018-May-22 09:30N 47°36' W 122°22'0 0.1
2018-May-22 09:00N 47°36' W 122°22'0 0.0
2018-May-22 08:30N 47°36' W 122°22'0 0.0
2018-May-22 08:00N 47°36' W 122°22'0 0.0
2018-May-22 07:30N 47°36' W 122°22'0 0.1
2018-May-22 07:00N 47°36' W 122°22'0 0.0
2018-May-22 06:30N 47°36' W 122°22'0 0.0
2018-May-22 06:00N 47°36' W 122°22'0 0.0
2018-May-22 05:30N 47°36' W 122°22'0 0.0
2018-May-22 04:59N 47°36' W 122°22'0 0.1
2018-May-22 04:29N 47°36' W 122°22'0 0.0
2018-May-22 03:59N 47°36' W 122°22'0 0.1
2018-May-22 03:29N 47°36' W 122°22'0 0.1
2018-May-22 02:59N 47°36' W 122°22'0 0.0
2018-May-22 02:29N 47°36' W 122°22'0 0.0
2018-May-22 01:59N 47°36' W 122°22'0 0.0
2018-May-22 01:29N 47°36' W 122°22'0 0.1
2018-May-22 00:59N 47°36' W 122°22'0 0.1
2018-May-22 00:29N 47°36' W 122°22'0 0.0
2018-May-21 23:59N 47°36' W 122°22'0 0.0
2018-May-21 23:29N 47°36' W 122°22'0 0.1
2018-May-21 22:59N 47°36' W 122°22'0 0.1
2018-May-21 22:29N 47°36' W 122°22'0 0.0
2018-May-21 21:59N 47°36' W 122°22'0 0.0
2018-May-21 21:29N 47°36' W 122°22'0 0.0
2018-May-21 20:59N 47°36' W 122°22'0 0.1
2018-May-21 20:29N 47°36' W 122°22'0 0.0
2018-May-21 19:59N 47°36' W 122°22'0 0.1
2018-May-21 19:29N 47°36' W 122°22'0 0.1
2018-May-21 18:59N 47°36' W 122°22'0 0.1
2018-May-21 18:29N 47°36' W 122°22'0 0.2
2018-May-21 17:59N 47°36' W 122°22'0 0.0
2018-May-21 17:29N 47°36' W 122°22'0 0.0
2018-May-21 16:59N 47°36' W 122°22'0 0.1
2018-May-21 16:29N 47°36' W 122°22'0 0.1
2018-May-21 15:59N 47°36' W 122°22'0 0.1
2018-May-21 15:29N 47°36' W 122°22'0 0.1
2018-May-21 14:59N 47°36' W 122°22'0 0.1
2018-May-21 14:29N 47°36' W 122°22'0 0.0
2018-May-21 13:59N 47°36' W 122°22'0 0.0
2018-May-21 13:29N 47°36' W 122°22'0 0.1
2018-May-21 12:59N 47°36' W 122°22'0 0.1
2018-May-21 12:29N 47°36' W 122°22'0 0.1
2018-May-21 11:59N 47°36' W 122°22'0 0.1
2018-May-21 11:29N 47°36' W 122°22'0 0.2
2018-May-21 10:59N 47°36' W 122°22'0 0.2
2018-May-21 10:29N 47°36' W 122°22'0 0.1
2018-May-21 09:59N 47°36' W 122°22'0 0.0
2018-May-21 09:29N 47°36' W 122°22'0 0.0
2018-May-21 08:59N 47°36' W 122°22'0 0.0
2018-May-21 08:29N 47°36' W 122°22'0 0.0
2018-May-21 07:59N 47°36' W 122°22'0 0.1
2018-May-21 07:29N 47°36' W 122°22'0 0.1
2018-May-21 06:59N 47°36' W 122°22'0 0.0
2018-May-21 06:29N 47°36' W 122°22'0 0.1
2018-May-21 05:59N 47°36' W 122°22'0 0.0
2018-May-21 05:29N 47°36' W 122°22'0 0.1
2018-May-21 04:59N 47°36' W 122°22'0 0.1
2018-May-21 04:29N 47°36' W 122°22'0 0.0
2018-May-21 03:59N 47°36' W 122°22'0 0.0
2018-May-21 03:29N 47°36' W 122°22'0 0.2
2018-May-21 02:59N 47°36' W 122°22'0 0.0
2018-May-21 02:29N 47°36' W 122°22'0 0.2
2018-May-21 01:53N 47°36' W 122°22'0 0.2
2018-May-21 01:29N 47°36' W 122°22'0 0.2
2018-May-21 01:00N 47°36' W 122°22'0 0.6
2018-May-21 00:30N 47°36' W 122°23'1 2.7
2018-May-21 00:00N 47°37' W 122°24'3 6.7
2018-May-20 23:30N 47°39' W 122°28'510.8
2018-May-20 23:00N 47°44' W 122°27'510.8
2018-May-20 22:30N 47°50' W 122°28'510.9
2018-May-20 22:00N 47°55' W 122°30'5 9.6
2018-May-20 21:30N 47°58' W 122°36'5 8.8
2018-May-20 20:57N 48°03' W 122°39'6 7.3
2018-May-20 20:10N 48°08' W 122°42'1 7.3
2018-May-20 19:58N 48°09' W 122°44'4 7.7
2018-May-20 19:30N 48°11' W 122°49'5 9.1
2018-May-20 18:55N 48°11' W 122°57'5 9.7
2018-May-20 18:24N 48°12' W 123°04'4 9.6
2018-May-20 17:58N 48°11' W 123°10'510.0
2018-May-20 17:30N 48°10' W 123°17'4 8.5
2018-May-20 16:59N 48°10' W 123°24'4 8.4
2018-May-20 16:28N 48°12' W 123°29'3 5.6
2018-May-20 16:00N 48°13' W 123°33'5 9.2
2018-May-20 15:29N 48°13' W 123°40'511.6
2018-May-20 15:00N 48°13' W 123°48'612.0
2018-May-20 14:30N 48°14' W 123°57'712.1
2018-May-20 13:57N 48°17' W 124°06'511.7
2018-May-20 13:30N 48°19' W 124°13'611.6
2018-May-20 13:00N 48°22' W 124°21'611.6
2018-May-20 12:30N 48°24' W 124°29'611.1
2018-May-20 12:00N 48°26' W 124°37'510.7
2018-May-20 11:30N 48°28' W 124°44'611.7
2018-May-20 11:00N 48°28' W 124°53'610.3
2018-May-20 10:26N 48°27' W 125°01'511.2
2018-May-20 10:00N 48°22' W 125°05'510.1
2018-May-20 09:29N 48°18' W 125°08'3 6.4
2018-May-20 09:00N 48°16' W 125°11'0 0.9
2018-May-20 08:26N 48°15' W 125°12'1 1.4
2018-May-20 07:57N 48°15' W 125°12'1 1.9
2018-May-20 07:30N 48°14' W 125°13'1 1.5
2018-May-20 06:55N 48°14' W 125°15'3 6.0
2018-May-20 06:25N 48°12' W 125°17'12410.9
2018-May-19 19:00N 47°00' W 127°48'113 9.9 280 / 121023.0 11.0 6.813.0
2018-May-19 07:32N 45°25' W 129°17'011.1
2018-May-19 07:30N 45°25' W 129°17'611.2
2018-May-19 07:00N 45°19' W 129°17'15112.6
2018-May-18 19:00N 42°48' W 129°24'29312.2 350 / 151025.0 14.0 8.011.0
2018-May-17 19:00N 38°00' W 128°12'57812.0 330 / 151026.0 16.012.413.0
2018-May-15 19:00N 29°54' W 121°54'28611.9 320 / 121024.0 20.010.919.0
2018-May-14 19:00N 26°42' W 117°54'53110.8 330 / 121021.0 21.014.220.0
2018-May-12 18:00N 22°54' W 109°06'   240 / 221018.0 27.022.626.0

Dump ship's entire track history